sensor_id;sensor_type;location;lat;lon;timestamp;P1;durP1;ratioP1;P2;durP2;ratioP2
40635;SDS011;26642;55.766;37.828;2023-08-07T00:02:07;5.72;;;5.10;;
40635;SDS011;26642;55.766;37.828;2023-08-07T00:04:33;6.10;;;5.15;;
40635;SDS011;26642;55.766;37.828;2023-08-07T00:06:59;5.32;;;4.82;;
40635;SDS011;26642;55.766;37.828;2023-08-07T00:09:25;5.85;;;5.13;;
40635;SDS011;26642;55.766;37.828;2023-08-07T00:11:51;6.55;;;4.75;;
40635;SDS011;26642;55.766;37.828;2023-08-07T00:14:17;5.57;;;5.00;;
40635;SDS011;26642;55.766;37.828;2023-08-07T00:16:43;5.28;;;4.75;;
40635;SDS011;26642;55.766;37.828;2023-08-07T00:19:09;6.82;;;5.00;;
40635;SDS011;26642;55.766;37.828;2023-08-07T00:21:36;6.63;;;4.85;;
40635;SDS011;26642;55.766;37.828;2023-08-07T00:24:03;5.13;;;4.72;;
40635;SDS011;26642;55.766;37.828;2023-08-07T00:26:29;7.25;;;4.80;;
40635;SDS011;26642;55.766;37.828;2023-08-07T00:28:57;10.05;;;5.05;;
40635;SDS011;26642;55.766;37.828;2023-08-07T00:31:23;5.85;;;4.75;;
40635;SDS011;26642;55.766;37.828;2023-08-07T00:33:49;5.45;;;4.90;;
40635;SDS011;26642;55.766;37.828;2023-08-07T00:36:19;4.93;;;4.53;;
40635;SDS011;26642;55.766;37.828;2023-08-07T00:38:45;5.65;;;4.68;;
40635;SDS011;26642;55.766;37.828;2023-08-07T00:41:11;5.72;;;5.00;;
40635;SDS011;26642;55.766;37.828;2023-08-07T00:43:37;6.22;;;5.00;;
40635;SDS011;26642;55.766;37.828;2023-08-07T00:46:04;5.00;;;4.60;;
40635;SDS011;26642;55.766;37.828;2023-08-07T00:48:31;7.25;;;4.82;;
40635;SDS011;26642;55.766;37.828;2023-08-07T00:50:57;7.55;;;5.20;;
40635;SDS011;26642;55.766;37.828;2023-08-07T00:53:23;6.68;;;5.20;;
40635;SDS011;26642;55.766;37.828;2023-08-07T00:55:49;7.57;;;5.28;;
40635;SDS011;26642;55.766;37.828;2023-08-07T00:58:16;6.75;;;5.30;;
40635;SDS011;26642;55.766;37.828;2023-08-07T01:00:42;5.80;;;4.78;;
40635;SDS011;26642;55.766;37.828;2023-08-07T01:03:08;5.20;;;4.70;;
40635;SDS011;26642;55.766;37.828;2023-08-07T01:05:37;7.63;;;5.32;;
40635;SDS011;26642;55.766;37.828;2023-08-07T01:08:03;8.40;;;5.50;;
40635;SDS011;26642;55.766;37.828;2023-08-07T01:10:33;10.05;;;5.18;;
40635;SDS011;26642;55.766;37.828;2023-08-07T01:13:34;6.28;;;5.22;;
40635;SDS011;26642;55.766;37.828;2023-08-07T01:16:21;7.78;;;5.55;;
40635;SDS011;26642;55.766;37.828;2023-08-07T01:18:53;7.07;;;4.82;;
40635;SDS011;26642;55.766;37.828;2023-08-07T01:21:20;6.65;;;5.05;;
40635;SDS011;26642;55.766;37.828;2023-08-07T01:23:47;5.40;;;4.90;;
40635;SDS011;26642;55.766;37.828;2023-08-07T01:26:18;5.13;;;4.72;;
40635;SDS011;26642;55.766;37.828;2023-08-07T01:28:52;9.90;;;5.13;;
40635;SDS011;26642;55.766;37.828;2023-08-07T01:31:43;4.82;;;4.30;;
40635;SDS011;26642;55.766;37.828;2023-08-07T01:34:12;5.82;;;5.00;;
40635;SDS011;26642;55.766;37.828;2023-08-07T01:36:39;8.43;;;5.45;;
40635;SDS011;26642;55.766;37.828;2023-08-07T01:39:05;6.10;;;4.85;;
40635;SDS011;26642;55.766;37.828;2023-08-07T01:41:33;5.88;;;5.28;;
40635;SDS011;26642;55.766;37.828;2023-08-07T01:44:01;6.18;;;5.32;;
40635;SDS011;26642;55.766;37.828;2023-08-07T01:46:29;5.57;;;5.05;;
40635;SDS011;26642;55.766;37.828;2023-08-07T01:48:55;6.57;;;5.13;;
40635;SDS011;26642;55.766;37.828;2023-08-07T01:51:20;6.25;;;5.22;;
40635;SDS011;26642;55.766;37.828;2023-08-07T01:53:48;6.75;;;5.30;;
40635;SDS011;26642;55.766;37.828;2023-08-07T01:56:14;5.60;;;5.10;;
40635;SDS011;26642;55.766;37.828;2023-08-07T01:58:40;8.55;;;5.57;;
40635;SDS011;26642;55.766;37.828;2023-08-07T02:01:06;6.00;;;5.40;;
40635;SDS011;26642;55.766;37.828;2023-08-07T02:03:32;7.88;;;5.40;;
40635;SDS011;26642;55.766;37.828;2023-08-07T02:05:58;5.65;;;4.90;;
40635;SDS011;26642;55.766;37.828;2023-08-07T02:08:24;8.88;;;4.93;;
40635;SDS011;26642;55.766;37.828;2023-08-07T02:10:50;5.95;;;5.20;;
40635;SDS011;26642;55.766;37.828;2023-08-07T02:13:16;6.13;;;5.35;;
40635;SDS011;26642;55.766;37.828;2023-08-07T02:15:42;6.85;;;4.90;;
40635;SDS011;26642;55.766;37.828;2023-08-07T02:18:08;7.45;;;5.40;;
40635;SDS011;26642;55.766;37.828;2023-08-07T02:20:34;6.50;;;5.18;;
40635;SDS011;26642;55.766;37.828;2023-08-07T02:23:00;6.53;;;5.45;;
40635;SDS011;26642;55.766;37.828;2023-08-07T02:25:27;7.72;;;5.15;;
40635;SDS011;26642;55.766;37.828;2023-08-07T02:27:55;5.85;;;5.28;;
40635;SDS011;26642;55.766;37.828;2023-08-07T02:30:21;5.30;;;4.80;;
40635;SDS011;26642;55.766;37.828;2023-08-07T02:32:48;6.80;;;5.40;;
40635;SDS011;26642;55.766;37.828;2023-08-07T02:35:14;6.07;;;5.10;;
40635;SDS011;26642;55.766;37.828;2023-08-07T02:37:40;5.38;;;4.88;;
40635;SDS011;26642;55.766;37.828;2023-08-07T02:40:07;5.72;;;5.05;;
40635;SDS011;26642;55.766;37.828;2023-08-07T02:42:33;8.07;;;5.28;;
40635;SDS011;26642;55.766;37.828;2023-08-07T02:44:59;5.88;;;5.30;;
40635;SDS011;26642;55.766;37.828;2023-08-07T02:47:25;7.20;;;5.13;;
40635;SDS011;26642;55.766;37.828;2023-08-07T02:49:51;7.28;;;5.28;;
40635;SDS011;26642;55.766;37.828;2023-08-07T02:52:17;5.60;;;5.10;;
40635;SDS011;26642;55.766;37.828;2023-08-07T02:54:43;9.45;;;5.50;;
40635;SDS011;26642;55.766;37.828;2023-08-07T02:57:09;5.40;;;4.90;;
40635;SDS011;26642;55.766;37.828;2023-08-07T02:59:35;5.53;;;5.03;;
40635;SDS011;26642;55.766;37.828;2023-08-07T03:02:01;5.45;;;5.03;;
40635;SDS011;26642;55.766;37.828;2023-08-07T03:04:26;7.10;;;4.95;;
40635;SDS011;26642;55.766;37.828;2023-08-07T03:06:52;7.10;;;5.43;;
40635;SDS011;26642;55.766;37.828;2023-08-07T03:09:19;7.25;;;5.43;;
40635;SDS011;26642;55.766;37.828;2023-08-07T03:11:45;6.00;;;5.43;;
40635;SDS011;26642;55.766;37.828;2023-08-07T03:14:11;9.35;;;5.55;;
40635;SDS011;26642;55.766;37.828;2023-08-07T03:16:38;7.90;;;5.30;;
40635;SDS011;26642;55.766;37.828;2023-08-07T03:19:03;8.50;;;5.00;;
40635;SDS011;26642;55.766;37.828;2023-08-07T03:21:30;6.47;;;5.10;;
40635;SDS011;26642;55.766;37.828;2023-08-07T03:23:56;7.45;;;5.00;;
40635;SDS011;26642;55.766;37.828;2023-08-07T03:26:22;6.78;;;5.57;;
40635;SDS011;26642;55.766;37.828;2023-08-07T03:28:48;6.40;;;5.28;;
40635;SDS011;26642;55.766;37.828;2023-08-07T03:31:15;7.00;;;5.00;;
40635;SDS011;26642;55.766;37.828;2023-08-07T03:33:41;5.88;;;5.28;;
40635;SDS011;26642;55.766;37.828;2023-08-07T03:36:07;6.38;;;5.18;;
40635;SDS011;26642;55.766;37.828;2023-08-07T03:38:34;5.80;;;5.18;;
40635;SDS011;26642;55.766;37.828;2023-08-07T03:41:00;5.50;;;4.95;;
40635;SDS011;26642;55.766;37.828;2023-08-07T03:43:28;5.38;;;4.88;;
40635;SDS011;26642;55.766;37.828;2023-08-07T03:45:54;5.78;;;5.28;;
40635;SDS011;26642;55.766;37.828;2023-08-07T03:48:24;8.82;;;5.10;;
40635;SDS011;26642;55.766;37.828;2023-08-07T03:50:50;5.40;;;4.90;;
40635;SDS011;26642;55.766;37.828;2023-08-07T03:53:17;5.57;;;5.07;;
40635;SDS011;26642;55.766;37.828;2023-08-07T03:55:50;9.50;;;5.40;;
40635;SDS011;26642;55.766;37.828;2023-08-07T03:58:19;5.78;;;5.13;;
40635;SDS011;26642;55.766;37.828;2023-08-07T04:00:45;5.43;;;4.93;;
40635;SDS011;26642;55.766;37.828;2023-08-07T04:03:11;6.32;;;5.07;;
40635;SDS011;26642;55.766;37.828;2023-08-07T04:05:37;5.40;;;4.75;;
40635;SDS011;26642;55.766;37.828;2023-08-07T04:08:06;5.75;;;4.95;;
40635;SDS011;26642;55.766;37.828;2023-08-07T04:10:32;4.90;;;4.15;;
40635;SDS011;26642;55.766;37.828;2023-08-07T04:12:57;5.93;;;4.70;;
40635;SDS011;26642;55.766;37.828;2023-08-07T04:15:24;4.95;;;4.40;;
40635;SDS011;26642;55.766;37.828;2023-08-07T04:17:49;6.93;;;4.43;;
40635;SDS011;26642;55.766;37.828;2023-08-07T04:20:15;7.13;;;4.22;;
40635;SDS011;26642;55.766;37.828;2023-08-07T04:22:41;6.10;;;4.10;;
40635;SDS011;26642;55.766;37.828;2023-08-07T04:25:07;6.72;;;4.25;;
40635;SDS011;26642;55.766;37.828;2023-08-07T04:27:33;7.15;;;4.20;;
40635;SDS011;26642;55.766;37.828;2023-08-07T04:29:59;4.40;;;4.00;;
40635;SDS011;26642;55.766;37.828;2023-08-07T04:32:26;6.10;;;3.95;;
40635;SDS011;26642;55.766;37.828;2023-08-07T04:34:51;4.50;;;4.05;;
40635;SDS011;26642;55.766;37.828;2023-08-07T04:37:17;4.60;;;3.80;;
40635;SDS011;26642;55.766;37.828;2023-08-07T04:39:43;4.05;;;3.65;;
40635;SDS011;26642;55.766;37.828;2023-08-07T04:42:09;3.45;;;3.15;;
40635;SDS011;26642;55.766;37.828;2023-08-07T04:44:35;4.72;;;4.10;;
40635;SDS011;26642;55.766;37.828;2023-08-07T04:47:01;4.18;;;3.75;;
40635;SDS011;26642;55.766;37.828;2023-08-07T04:49:27;4.75;;;3.38;;
40635;SDS011;26642;55.766;37.828;2023-08-07T04:51:53;3.63;;;3.33;;
40635;SDS011;26642;55.766;37.828;2023-08-07T04:54:19;4.35;;;3.95;;
40635;SDS011;26642;55.766;37.828;2023-08-07T04:56:45;5.45;;;3.60;;
40635;SDS011;26642;55.766;37.828;2023-08-07T04:59:11;9.13;;;3.72;;
40635;SDS011;26642;55.766;37.828;2023-08-07T05:01:37;6.07;;;3.28;;
40635;SDS011;26642;55.766;37.828;2023-08-07T05:04:03;5.82;;;3.38;;
40635;SDS011;26642;55.766;37.828;2023-08-07T05:06:30;4.03;;;3.17;;
40635;SDS011;26642;55.766;37.828;2023-08-07T05:08:56;8.90;;;3.20;;
40635;SDS011;26642;55.766;37.828;2023-08-07T05:11:22;5.03;;;3.38;;
40635;SDS011;26642;55.766;37.828;2023-08-07T05:13:48;3.95;;;2.80;;
40635;SDS011;26642;55.766;37.828;2023-08-07T05:16:14;11.05;;;3.47;;
40635;SDS011;26642;55.766;37.828;2023-08-07T05:18:40;3.53;;;3.20;;
40635;SDS011;26642;55.766;37.828;2023-08-07T05:21:06;3.85;;;3.38;;
40635;SDS011;26642;55.766;37.828;2023-08-07T05:23:34;6.00;;;3.25;;
40635;SDS011;26642;55.766;37.828;2023-08-07T05:25:59;5.05;;;3.25;;
40635;SDS011;26642;55.766;37.828;2023-08-07T05:28:25;4.55;;;3.15;;
40635;SDS011;26642;55.766;37.828;2023-08-07T05:30:51;3.83;;;3.20;;
40635;SDS011;26642;55.766;37.828;2023-08-07T05:33:17;3.13;;;2.90;;
40635;SDS011;26642;55.766;37.828;2023-08-07T05:35:43;4.15;;;2.80;;
40635;SDS011;26642;55.766;37.828;2023-08-07T05:38:09;6.15;;;2.80;;
40635;SDS011;26642;55.766;37.828;2023-08-07T05:40:35;3.88;;;3.22;;
40635;SDS011;26642;55.766;37.828;2023-08-07T05:43:02;6.63;;;3.13;;
40635;SDS011;26642;55.766;37.828;2023-08-07T05:45:28;3.05;;;2.80;;
40635;SDS011;26642;55.766;37.828;2023-08-07T05:47:54;5.72;;;2.95;;
40635;SDS011;26642;55.766;37.828;2023-08-07T05:50:20;4.28;;;2.90;;
40635;SDS011;26642;55.766;37.828;2023-08-07T05:52:46;3.75;;;2.92;;
40635;SDS011;26642;55.766;37.828;2023-08-07T05:55:12;5.63;;;2.90;;
40635;SDS011;26642;55.766;37.828;2023-08-07T05:57:38;3.80;;;2.70;;
40635;SDS011;26642;55.766;37.828;2023-08-07T06:00:04;2.95;;;2.70;;
40635;SDS011;26642;55.766;37.828;2023-08-07T06:02:37;4.10;;;2.58;;
40635;SDS011;26642;55.766;37.828;2023-08-07T06:05:03;6.18;;;2.75;;
40635;SDS011;26642;55.766;37.828;2023-08-07T06:07:29;3.53;;;2.65;;
40635;SDS011;26642;55.766;37.828;2023-08-07T06:09:55;4.00;;;2.40;;
40635;SDS011;26642;55.766;37.828;2023-08-07T06:12:21;4.25;;;2.58;;
40635;SDS011;26642;55.766;37.828;2023-08-07T06:14:47;5.72;;;2.30;;
40635;SDS011;26642;55.766;37.828;2023-08-07T06:17:13;2.47;;;2.28;;
40635;SDS011;26642;55.766;37.828;2023-08-07T06:19:39;2.50;;;2.30;;
40635;SDS011;26642;55.766;37.828;2023-08-07T06:22:05;4.75;;;2.40;;
40635;SDS011;26642;55.766;37.828;2023-08-07T06:24:31;3.17;;;2.40;;
40635;SDS011;26642;55.766;37.828;2023-08-07T06:26:57;6.72;;;2.30;;
40635;SDS011;26642;55.766;37.828;2023-08-07T06:29:23;3.03;;;2.58;;
40635;SDS011;26642;55.766;37.828;2023-08-07T06:31:49;6.18;;;2.50;;
40635;SDS011;26642;55.766;37.828;2023-08-07T06:34:15;4.15;;;2.50;;
40635;SDS011;26642;55.766;37.828;2023-08-07T06:36:40;4.53;;;2.25;;
40635;SDS011;26642;55.766;37.828;2023-08-07T06:39:06;3.08;;;2.08;;
40635;SDS011;26642;55.766;37.828;2023-08-07T06:41:32;3.17;;;2.00;;
40635;SDS011;26642;55.766;37.828;2023-08-07T06:43:58;3.15;;;2.20;;
40635;SDS011;26642;55.766;37.828;2023-08-07T06:46:24;3.72;;;2.17;;
40635;SDS011;26642;55.766;37.828;2023-08-07T06:48:52;3.58;;;2.15;;
40635;SDS011;26642;55.766;37.828;2023-08-07T06:51:17;2.97;;;2.17;;
40635;SDS011;26642;55.766;37.828;2023-08-07T06:53:43;3.65;;;2.33;;
40635;SDS011;26642;55.766;37.828;2023-08-07T06:56:09;2.88;;;2.13;;
40635;SDS011;26642;55.766;37.828;2023-08-07T06:58:35;3.08;;;2.20;;
40635;SDS011;26642;55.766;37.828;2023-08-07T07:01:01;2.63;;;2.38;;
40635;SDS011;26642;55.766;37.828;2023-08-07T07:03:27;2.35;;;2.15;;
40635;SDS011;26642;55.766;37.828;2023-08-07T07:05:53;6.28;;;2.15;;
40635;SDS011;26642;55.766;37.828;2023-08-07T07:08:20;4.78;;;2.28;;
40635;SDS011;26642;55.766;37.828;2023-08-07T07:10:46;4.80;;;2.20;;
40635;SDS011;26642;55.766;37.828;2023-08-07T07:13:12;2.80;;;2.10;;
40635;SDS011;26642;55.766;37.828;2023-08-07T07:15:38;5.18;;;2.00;;
40635;SDS011;26642;55.766;37.828;2023-08-07T07:18:04;5.45;;;2.10;;
40635;SDS011;26642;55.766;37.828;2023-08-07T07:20:30;2.83;;;1.90;;
40635;SDS011;26642;55.766;37.828;2023-08-07T07:22:56;4.82;;;1.85;;
40635;SDS011;26642;55.766;37.828;2023-08-07T07:25:22;3.67;;;2.00;;
40635;SDS011;26642;55.766;37.828;2023-08-07T07:27:48;4.22;;;1.75;;
40635;SDS011;26642;55.766;37.828;2023-08-07T07:30:14;3.97;;;2.00;;
40635;SDS011;26642;55.766;37.828;2023-08-07T07:32:40;2.20;;;1.98;;
40635;SDS011;26642;55.766;37.828;2023-08-07T07:35:06;5.85;;;2.10;;
40635;SDS011;26642;55.766;37.828;2023-08-07T07:37:32;2.75;;;1.70;;
40635;SDS011;26642;55.766;37.828;2023-08-07T07:39:58;4.10;;;1.90;;
40635;SDS011;26642;55.766;37.828;2023-08-07T07:42:24;3.03;;;2.47;;
40635;SDS011;26642;55.766;37.828;2023-08-07T07:44:50;2.42;;;2.15;;
40635;SDS011;26642;55.766;37.828;2023-08-07T07:47:16;3.88;;;1.80;;
40635;SDS011;26642;55.766;37.828;2023-08-07T07:49:45;4.10;;;1.80;;
40635;SDS011;26642;55.766;37.828;2023-08-07T07:52:15;5.53;;;1.92;;
40635;SDS011;26642;55.766;37.828;2023-08-07T07:54:41;4.63;;;2.20;;
40635;SDS011;26642;55.766;37.828;2023-08-07T07:57:07;4.80;;;1.90;;
40635;SDS011;26642;55.766;37.828;2023-08-07T07:59:33;4.78;;;1.90;;
40635;SDS011;26642;55.766;37.828;2023-08-07T08:01:59;4.13;;;1.98;;
40635;SDS011;26642;55.766;37.828;2023-08-07T08:04:24;3.28;;;1.60;;
40635;SDS011;26642;55.766;37.828;2023-08-07T08:06:50;6.18;;;2.10;;
40635;SDS011;26642;55.766;37.828;2023-08-07T08:09:16;6.45;;;1.80;;
40635;SDS011;26642;55.766;37.828;2023-08-07T08:11:42;5.60;;;1.85;;
40635;SDS011;26642;55.766;37.828;2023-08-07T08:14:08;3.17;;;1.80;;
40635;SDS011;26642;55.766;37.828;2023-08-07T08:16:34;4.65;;;1.60;;
40635;SDS011;26642;55.766;37.828;2023-08-07T08:19:00;5.70;;;2.15;;
40635;SDS011;26642;55.766;37.828;2023-08-07T08:21:27;5.30;;;1.88;;
40635;SDS011;26642;55.766;37.828;2023-08-07T08:23:53;1.90;;;1.70;;
40635;SDS011;26642;55.766;37.828;2023-08-07T08:26:19;2.75;;;1.70;;
40635;SDS011;26642;55.766;37.828;2023-08-07T08:28:45;2.35;;;1.50;;
40635;SDS011;26642;55.766;37.828;2023-08-07T08:31:11;4.13;;;1.88;;
40635;SDS011;26642;55.766;37.828;2023-08-07T08:33:36;4.80;;;2.00;;
40635;SDS011;26642;55.766;37.828;2023-08-07T08:36:02;5.57;;;1.80;;
40635;SDS011;26642;55.766;37.828;2023-08-07T08:38:28;2.17;;;1.60;;
40635;SDS011;26642;55.766;37.828;2023-08-07T08:40:57;2.97;;;1.60;;
40635;SDS011;26642;55.766;37.828;2023-08-07T08:43:27;5.85;;;1.95;;
40635;SDS011;26642;55.766;37.828;2023-08-07T08:45:59;2.35;;;1.67;;
40635;SDS011;26642;55.766;37.828;2023-08-07T08:48:26;4.30;;;1.50;;
40635;SDS011;26642;55.766;37.828;2023-08-07T08:50:56;1.98;;;1.65;;
40635;SDS011;26642;55.766;37.828;2023-08-07T08:53:23;3.67;;;1.73;;
40635;SDS011;26642;55.766;37.828;2023-08-07T08:55:49;3.28;;;1.80;;
40635;SDS011;26642;55.766;37.828;2023-08-07T08:58:16;3.83;;;2.08;;
40635;SDS011;26642;55.766;37.828;2023-08-07T09:00:42;4.82;;;2.00;;
40635;SDS011;26642;55.766;37.828;2023-08-07T09:03:09;3.30;;;2.00;;
40635;SDS011;26642;55.766;37.828;2023-08-07T09:05:35;1.73;;;1.60;;
40635;SDS011;26642;55.766;37.828;2023-08-07T09:08:02;3.00;;;1.45;;
40635;SDS011;26642;55.766;37.828;2023-08-07T09:10:30;2.92;;;1.40;;
40635;SDS011;26642;55.766;37.828;2023-08-07T09:13:00;2.88;;;1.70;;
40635;SDS011;26642;55.766;37.828;2023-08-07T09:15:29;3.45;;;1.52;;
40635;SDS011;26642;55.766;37.828;2023-08-07T09:18:01;5.28;;;2.05;;
40635;SDS011;26642;55.766;37.828;2023-08-07T09:20:32;2.17;;;1.60;;
40635;SDS011;26642;55.766;37.828;2023-08-07T09:23:00;2.70;;;1.70;;
40635;SDS011;26642;55.766;37.828;2023-08-07T09:25:32;3.30;;;1.40;;
40635;SDS011;26642;55.766;37.828;2023-08-07T09:28:02;1.88;;;1.45;;
40635;SDS011;26642;55.766;37.828;2023-08-07T09:30:29;2.67;;;1.77;;
40635;SDS011;26642;55.766;37.828;2023-08-07T09:32:56;4.22;;;1.58;;
40635;SDS011;26642;55.766;37.828;2023-08-07T09:35:23;3.22;;;1.58;;
40635;SDS011;26642;55.766;37.828;2023-08-07T09:37:49;2.20;;;2.00;;
40635;SDS011;26642;55.766;37.828;2023-08-07T09:40:16;3.97;;;1.80;;
40635;SDS011;26642;55.766;37.828;2023-08-07T09:42:43;2.10;;;1.73;;
40635;SDS011;26642;55.766;37.828;2023-08-07T09:45:18;5.25;;;1.70;;
40635;SDS011;26642;55.766;37.828;2023-08-07T09:47:46;1.55;;;1.45;;
40635;SDS011;26642;55.766;37.828;2023-08-07T09:50:16;1.83;;;1.55;;
40635;SDS011;26642;55.766;37.828;2023-08-07T09:52:45;2.85;;;1.55;;
40635;SDS011;26642;55.766;37.828;2023-08-07T09:55:13;4.20;;;1.90;;
40635;SDS011;26642;55.766;37.828;2023-08-07T09:57:43;2.03;;;1.83;;
40635;SDS011;26642;55.766;37.828;2023-08-07T10:00:10;2.95;;;1.70;;
40635;SDS011;26642;55.766;37.828;2023-08-07T10:02:41;2.08;;;1.67;;
40635;SDS011;26642;55.766;37.828;2023-08-07T10:05:11;2.28;;;1.60;;
40635;SDS011;26642;55.766;37.828;2023-08-07T10:07:38;1.60;;;1.50;;
40635;SDS011;26642;55.766;37.828;2023-08-07T10:10:04;1.73;;;1.60;;
40635;SDS011;26642;55.766;37.828;2023-08-07T10:12:31;2.42;;;1.70;;
40635;SDS011;26642;55.766;37.828;2023-08-07T10:15:01;2.88;;;1.60;;
40635;SDS011;26642;55.766;37.828;2023-08-07T10:17:28;3.35;;;1.88;;
40635;SDS011;26642;55.766;37.828;2023-08-07T10:19:56;1.60;;;1.45;;
40635;SDS011;26642;55.766;37.828;2023-08-07T10:22:23;3.80;;;1.60;;
40635;SDS011;26642;55.766;37.828;2023-08-07T10:24:52;5.82;;;1.90;;
40635;SDS011;26642;55.766;37.828;2023-08-07T10:27:21;1.60;;;1.50;;
40635;SDS011;26642;55.766;37.828;2023-08-07T10:29:50;2.78;;;1.75;;
40635;SDS011;26642;55.766;37.828;2023-08-07T10:32:19;2.88;;;1.73;;
40635;SDS011;26642;55.766;37.828;2023-08-07T10:34:47;1.70;;;1.55;;
40635;SDS011;26642;55.766;37.828;2023-08-07T10:40:10;3.45;;;1.50;;
40635;SDS011;26642;55.766;37.828;2023-08-07T10:42:50;4.38;;;1.70;;
40635;SDS011;26642;55.766;37.828;2023-08-07T10:45:17;5.93;;;1.65;;
40635;SDS011;26642;55.766;37.828;2023-08-07T10:47:56;2.67;;;1.70;;
40635;SDS011;26642;55.766;37.828;2023-08-07T10:50:31;2.25;;;1.77;;
40635;SDS011;26642;55.766;37.828;2023-08-07T10:53:04;3.03;;;1.70;;
40635;SDS011;26642;55.766;37.828;2023-08-07T10:55:43;3.35;;;1.42;;
40635;SDS011;26642;55.766;37.828;2023-08-07T10:58:23;2.03;;;1.83;;
40635;SDS011;26642;55.766;37.828;2023-08-07T11:00:51;3.22;;;1.65;;
40635;SDS011;26642;55.766;37.828;2023-08-07T11:03:36;2.28;;;1.75;;
40635;SDS011;26642;55.766;37.828;2023-08-07T11:06:02;3.50;;;1.50;;
40635;SDS011;26642;55.766;37.828;2023-08-07T11:08:28;4.32;;;1.60;;
40635;SDS011;26642;55.766;37.828;2023-08-07T11:10:55;1.50;;;1.40;;
40635;SDS011;26642;55.766;37.828;2023-08-07T11:13:23;1.83;;;1.67;;
40635;SDS011;26642;55.766;37.828;2023-08-07T11:15:49;2.35;;;1.50;;
40635;SDS011;26642;55.766;37.828;2023-08-07T11:18:15;2.72;;;1.50;;
40635;SDS011;26642;55.766;37.828;2023-08-07T11:20:41;3.30;;;1.63;;
40635;SDS011;26642;55.766;37.828;2023-08-07T11:23:07;2.40;;;1.75;;
40635;SDS011;26642;55.766;37.828;2023-08-07T11:25:33;2.80;;;1.88;;
40635;SDS011;26642;55.766;37.828;2023-08-07T11:27:59;3.90;;;1.80;;
40635;SDS011;26642;55.766;37.828;2023-08-07T11:30:25;2.33;;;1.52;;
40635;SDS011;26642;55.766;37.828;2023-08-07T11:32:51;5.35;;;1.58;;
40635;SDS011;26642;55.766;37.828;2023-08-07T11:35:17;2.40;;;2.15;;
40635;SDS011;26642;55.766;37.828;2023-08-07T11:37:46;4.18;;;1.90;;
40635;SDS011;26642;55.766;37.828;2023-08-07T11:40:13;2.22;;;2.00;;
40635;SDS011;26642;55.766;37.828;2023-08-07T11:42:40;2.58;;;2.00;;
40635;SDS011;26642;55.766;37.828;2023-08-07T11:45:06;3.88;;;1.70;;
40635;SDS011;26642;55.766;37.828;2023-08-07T11:47:33;2.25;;;1.90;;
40635;SDS011;26642;55.766;37.828;2023-08-07T11:50:00;2.35;;;2.05;;
40635;SDS011;26642;55.766;37.828;2023-08-07T11:52:27;2.00;;;1.88;;
40635;SDS011;26642;55.766;37.828;2023-08-07T11:54:53;2.63;;;2.00;;
40635;SDS011;26642;55.766;37.828;2023-08-07T11:57:22;2.92;;;2.05;;
40635;SDS011;26642;55.766;37.828;2023-08-07T11:59:51;2.20;;;1.90;;
40635;SDS011;26642;55.766;37.828;2023-08-07T12:02:21;2.60;;;1.88;;
40635;SDS011;26642;55.766;37.828;2023-08-07T12:04:49;2.42;;;1.90;;
40635;SDS011;26642;55.766;37.828;2023-08-07T12:07:18;1.92;;;1.77;;
40635;SDS011;26642;55.766;37.828;2023-08-07T12:09:48;3.30;;;2.05;;
40635;SDS011;26642;55.766;37.828;2023-08-07T12:12:14;3.78;;;2.38;;
40635;SDS011;26642;55.766;37.828;2023-08-07T12:14:40;3.42;;;2.25;;
40635;SDS011;26642;55.766;37.828;2023-08-07T12:17:08;6.18;;;2.28;;
40635;SDS011;26642;55.766;37.828;2023-08-07T12:19:38;2.90;;;2.08;;
40635;SDS011;26642;55.766;37.828;2023-08-07T12:22:10;3.92;;;2.08;;
40635;SDS011;26642;55.766;37.828;2023-08-07T12:24:36;2.70;;;1.80;;
40635;SDS011;26642;55.766;37.828;2023-08-07T12:27:03;6.82;;;2.80;;
40635;SDS011;26642;55.766;37.828;2023-08-07T12:29:30;3.28;;;1.98;;
40635;SDS011;26642;55.766;37.828;2023-08-07T12:31:56;3.85;;;2.22;;
40635;SDS011;26642;55.766;37.828;2023-08-07T12:34:24;4.35;;;1.90;;
40635;SDS011;26642;55.766;37.828;2023-08-07T12:36:50;2.47;;;2.08;;
40635;SDS011;26642;55.766;37.828;2023-08-07T12:39:16;5.45;;;2.25;;
40635;SDS011;26642;55.766;37.828;2023-08-07T12:41:42;3.70;;;2.08;;
40635;SDS011;26642;55.766;37.828;2023-08-07T12:44:08;2.45;;;2.00;;
40635;SDS011;26642;55.766;37.828;2023-08-07T12:46:34;2.03;;;1.85;;
40635;SDS011;26642;55.766;37.828;2023-08-07T12:49:01;3.78;;;2.10;;
40635;SDS011;26642;55.766;37.828;2023-08-07T12:51:27;2.38;;;2.17;;
40635;SDS011;26642;55.766;37.828;2023-08-07T12:53:53;5.95;;;2.40;;
40635;SDS011;26642;55.766;37.828;2023-08-07T12:56:20;4.97;;;1.90;;
40635;SDS011;26642;55.766;37.828;2023-08-07T12:58:46;2.15;;;1.90;;
40635;SDS011;26642;55.766;37.828;2023-08-07T13:01:12;5.60;;;2.10;;
40635;SDS011;26642;55.766;37.828;2023-08-07T13:03:38;2.95;;;2.00;;
40635;SDS011;26642;55.766;37.828;2023-08-07T13:06:04;2.65;;;2.08;;
40635;SDS011;26642;55.766;37.828;2023-08-07T13:08:32;6.95;;;2.33;;
40635;SDS011;26642;55.766;37.828;2023-08-07T13:11:00;4.05;;;2.13;;
40635;SDS011;26642;55.766;37.828;2023-08-07T13:13:26;3.15;;;2.05;;
40635;SDS011;26642;55.766;37.828;2023-08-07T13:15:53;4.45;;;2.15;;
40635;SDS011;26642;55.766;37.828;2023-08-07T13:18:19;2.63;;;2.30;;
40635;SDS011;26642;55.766;37.828;2023-08-07T13:20:45;2.25;;;1.90;;
40635;SDS011;26642;55.766;37.828;2023-08-07T13:23:13;3.28;;;1.95;;
40635;SDS011;26642;55.766;37.828;2023-08-07T13:25:40;3.53;;;2.47;;
40635;SDS011;26642;55.766;37.828;2023-08-07T13:28:06;4.22;;;1.92;;
40635;SDS011;26642;55.766;37.828;2023-08-07T13:30:32;3.78;;;2.15;;
40635;SDS011;26642;55.766;37.828;2023-08-07T13:32:59;3.47;;;2.10;;
40635;SDS011;26642;55.766;37.828;2023-08-07T13:35:25;5.43;;;1.95;;
40635;SDS011;26642;55.766;37.828;2023-08-07T13:37:51;4.68;;;2.00;;
40635;SDS011;26642;55.766;37.828;2023-08-07T13:40:17;1.83;;;1.73;;
40635;SDS011;26642;55.766;37.828;2023-08-07T13:42:44;2.78;;;2.20;;
40635;SDS011;26642;55.766;37.828;2023-08-07T13:45:11;2.78;;;2.03;;
40635;SDS011;26642;55.766;37.828;2023-08-07T13:47:38;3.35;;;2.03;;
40635;SDS011;26642;55.766;37.828;2023-08-07T13:50:06;2.65;;;2.00;;
40635;SDS011;26642;55.766;37.828;2023-08-07T13:52:33;3.85;;;1.98;;
40635;SDS011;26642;55.766;37.828;2023-08-07T13:54:59;3.30;;;2.05;;
40635;SDS011;26642;55.766;37.828;2023-08-07T13:57:25;2.92;;;2.28;;
40635;SDS011;26642;55.766;37.828;2023-08-07T13:59:51;3.35;;;1.88;;
40635;SDS011;26642;55.766;37.828;2023-08-07T14:02:19;2.55;;;2.35;;
40635;SDS011;26642;55.766;37.828;2023-08-07T14:04:45;5.45;;;2.00;;
40635;SDS011;26642;55.766;37.828;2023-08-07T14:07:11;2.78;;;2.25;;
40635;SDS011;26642;55.766;37.828;2023-08-07T14:09:37;5.38;;;2.03;;
40635;SDS011;26642;55.766;37.828;2023-08-07T14:12:03;2.22;;;2.00;;
40635;SDS011;26642;55.766;37.828;2023-08-07T14:14:29;3.55;;;2.25;;
40635;SDS011;26642;55.766;37.828;2023-08-07T14:16:55;3.13;;;2.20;;
40635;SDS011;26642;55.766;37.828;2023-08-07T14:19:25;2.92;;;2.45;;
40635;SDS011;26642;55.766;37.828;2023-08-07T14:21:51;3.20;;;2.20;;
40635;SDS011;26642;55.766;37.828;2023-08-07T14:24:17;2.40;;;2.15;;
40635;SDS011;26642;55.766;37.828;2023-08-07T14:26:43;2.97;;;2.33;;
40635;SDS011;26642;55.766;37.828;2023-08-07T14:29:09;3.42;;;2.25;;
40635;SDS011;26642;55.766;37.828;2023-08-07T14:31:35;4.78;;;2.50;;
40635;SDS011;26642;55.766;37.828;2023-08-07T14:34:01;3.00;;;1.90;;
40635;SDS011;26642;55.766;37.828;2023-08-07T14:36:27;3.70;;;2.50;;